createdAt,value
2018-10-03T00:00:33.628Z,101441.85
2018-10-03T00:03:03.305Z,101446.55
2018-10-03T00:05:31.835Z,101442.55
2018-10-03T00:08:00.378Z,101444.65
2018-10-03T00:10:28.928Z,101443.90
2018-10-03T00:12:57.464Z,101445.25
2018-10-03T00:15:26.059Z,101444.30
2018-10-03T00:17:54.614Z,101448.14
2018-10-03T00:20:23.109Z,101436.87
2018-10-03T00:22:51.721Z,101443.78
2018-10-03T00:25:20.274Z,101436.95
2018-10-03T00:27:48.763Z,101433.30
2018-10-03T00:30:17.269Z,101427.10
2018-10-03T00:32:46.149Z,101438.37
2018-10-03T00:35:14.671Z,101433.01
2018-10-03T00:37:43.438Z,101422.61
2018-10-03T00:40:13.125Z,101424.08
2018-10-03T00:42:41.668Z,101426.21
2018-10-03T00:45:10.200Z,101429.75
2018-10-03T00:47:38.767Z,101426.90
2018-10-03T00:50:07.294Z,101423.47
2018-10-03T00:52:35.847Z,101420.67
2018-10-03T00:55:05.236Z,101436.38
2018-10-03T00:57:34.720Z,101436.32
2018-10-03T01:00:04.723Z,101438.80
2018-10-03T01:02:33.370Z,101437.65
2018-10-03T01:05:02.755Z,101436.64
2018-10-03T01:07:31.265Z,101434.66
2018-10-03T01:09:59.785Z,101428.83
2018-10-03T01:12:28.265Z,101432.72
2018-10-03T01:14:57.188Z,101433.52
2018-10-03T01:17:25.733Z,101436.72
2018-10-03T01:19:54.269Z,101450.50
2018-10-03T01:22:22.796Z,101444.83
2018-10-03T01:24:51.365Z,101443.90
2018-10-03T01:27:19.841Z,101455.14
2018-10-03T01:29:48.367Z,101447.59
2018-10-03T01:32:17.253Z,101448.25
2018-10-03T01:34:45.709Z,101448.34
2018-10-03T01:37:14.205Z,101454.88
2018-10-03T01:39:42.736Z,101449.98
2018-10-03T01:42:11.238Z,101458.86
2018-10-03T01:44:39.958Z,101459.31
2018-10-03T01:47:08.484Z,101458.25
2018-10-03T01:49:36.971Z,101464.80
2018-10-03T01:52:05.482Z,101461.88
2018-10-03T01:54:34.036Z,101476.58
2018-10-03T01:57:04.176Z,101473.33
2018-10-03T01:59:32.758Z,101478.08
2018-10-03T02:02:02.828Z,101474.63
2018-10-03T02:04:31.424Z,101475.95
2018-10-03T02:06:59.969Z,101477.41
2018-10-03T02:09:28.573Z,101485.55
2018-10-03T02:11:57.088Z,101488.77
2018-10-03T02:14:25.593Z,101490.33
2018-10-03T02:16:54.330Z,101498.75
2018-10-03T02:19:22.829Z,101494.03
2018-10-03T02:21:51.424Z,101495.93
2018-10-03T02:24:20.482Z,101494.52
2018-10-03T02:26:49.048Z,101496.29
2018-10-03T02:29:17.668Z,101501.72
2018-10-03T02:31:46.188Z,101495.77
2018-10-03T02:34:14.717Z,101498.00
2018-10-03T02:36:43.557Z,101511.41
2018-10-03T02:39:12.075Z,101509.16
2018-10-03T02:41:40.625Z,101514.50
2018-10-03T02:44:09.169Z,101507.44
2018-10-03T02:46:37.769Z,101509.31
2018-10-03T02:49:06.399Z,101518.95
2018-10-03T02:51:35.143Z,101526.94
2018-10-03T02:54:05.285Z,101527.53
2018-10-03T02:56:33.821Z,101526.52
2018-10-03T02:59:07.236Z,101530.58
2018-10-03T03:01:35.760Z,101530.08
2018-10-03T03:04:05.180Z,101529.33
2018-10-03T03:06:33.657Z,101535.16
2018-10-03T03:09:07.005Z,101537.25
2018-10-03T03:11:35.522Z,101536.06
2018-10-03T03:14:04.254Z,101536.77
2018-10-03T03:16:32.797Z,101539.31
2018-10-03T03:19:02.907Z,101540.91
2018-10-03T03:21:31.446Z,101544.88
2018-10-03T03:23:59.945Z,101539.96
2018-10-03T03:26:28.471Z,101542.78
2018-10-03T03:28:57.215Z,101541.05
2018-10-03T03:31:26.023Z,101545.02
2018-10-03T03:33:54.507Z,101545.13
2018-10-03T03:36:22.986Z,101548.25
2018-10-03T03:38:51.492Z,101547.83
2018-10-03T03:41:20.037Z,101554.60
2018-10-03T03:43:48.580Z,101549.33
2018-10-03T03:46:17.208Z,101557.23
2018-10-03T03:48:45.736Z,101550.55
2018-10-03T03:51:14.547Z,101560.67
2018-10-03T03:53:43.073Z,101560.91
2018-10-03T03:56:11.605Z,101574.11
2018-10-03T03:58:40.431Z,101572.98
2018-10-03T04:01:08.928Z,101583.06
2018-10-03T04:03:37.430Z,101578.91
2018-10-03T04:06:05.940Z,101578.27
2018-10-03T04:08:34.472Z,101579.01
2018-10-03T04:11:05.237Z,101581.49
2018-10-03T04:13:33.717Z,101587.00
2018-10-03T04:16:04.092Z,101585.03
2018-10-03T04:18:32.588Z,101583.68
2018-10-03T04:21:03.598Z,101597.22
2018-10-03T04:23:32.087Z,101605.95
2018-10-03T04:26:00.611Z,101592.28
2018-10-03T04:28:29.224Z,101592.27
2018-10-03T04:30:57.729Z,101605.49
2018-10-03T04:33:26.249Z,101602.91
2018-10-03T04:35:54.771Z,101610.71
2018-10-03T04:38:23.244Z,101610.84
2018-10-03T04:40:51.762Z,101616.36
2018-10-03T04:43:20.564Z,101623.64
2018-10-03T04:45:49.078Z,101625.32
2018-10-03T04:48:17.668Z,101627.28
2018-10-03T04:50:46.214Z,101637.79
2018-10-03T04:53:15.926Z,101639.02
2018-10-03T04:55:44.447Z,101641.21
2018-10-03T04:58:12.953Z,101644.42
2018-10-03T05:00:41.938Z,101646.80
2018-10-03T05:03:10.746Z,101646.48
2018-10-03T05:05:39.232Z,101647.55
2018-10-03T05:08:07.980Z,101651.37
2018-10-03T05:10:36.522Z,101659.18
2018-10-03T05:13:05.583Z,101664.59
2018-10-03T05:15:34.485Z,101665.34
2018-10-03T05:18:04.958Z,101663.23
2018-10-03T05:20:34.721Z,101661.03
2018-10-03T05:23:05.783Z,101678.80
2018-10-03T05:25:34.317Z,101679.27
2018-10-03T05:28:05.230Z,101682.52
2018-10-03T05:30:33.820Z,101682.40
2018-10-03T05:33:04.195Z,101680.62
2018-10-03T05:35:32.740Z,101682.13
2018-10-03T05:38:02.821Z,101688.38
2018-10-03T05:40:31.478Z,101700.89
2018-10-03T05:43:00.006Z,101698.51
2018-10-03T05:45:28.596Z,101703.89
2018-10-03T05:47:57.112Z,101706.73
2018-10-03T05:50:25.649Z,101705.28
2018-10-03T05:52:54.176Z,101711.13
2018-10-03T05:55:22.671Z,101715.56
2018-10-03T05:57:51.271Z,101724.86
2018-10-03T06:00:19.858Z,101723.79
2018-10-03T06:02:48.570Z,101722.34
2018-10-03T06:05:17.105Z,101722.86
2018-10-03T06:07:45.605Z,101725.14
2018-10-03T06:10:14.088Z,101718.88
2018-10-03T06:12:42.581Z,101725.23
2018-10-03T06:15:11.139Z,101731.50
2018-10-03T06:17:39.682Z,101735.14
2018-10-03T06:20:09.191Z,101740.47
2018-10-03T06:22:38.389Z,101744.31
2018-10-03T06:25:06.981Z,101750.56
2018-10-03T06:27:35.474Z,101755.70
2018-10-03T06:30:05.710Z,101758.41
2018-10-03T06:32:34.342Z,101779.05
2018-10-03T06:35:04.648Z,101775.91
2018-10-03T06:37:33.245Z,101781.44
2018-10-03T06:40:02.929Z,101781.02
2018-10-03T06:42:31.536Z,101786.34
2018-10-03T06:45:00.085Z,101788.20
2018-10-03T06:47:28.583Z,101797.59
2018-10-03T06:49:57.123Z,101801.33
2018-10-03T06:52:25.803Z,101803.96
2018-10-03T06:54:54.563Z,101811.98
2018-10-03T06:57:23.090Z,101815.94
2018-10-03T06:59:51.642Z,101822.81
2018-10-03T07:02:20.116Z,101824.39
2018-10-03T07:04:48.737Z,101830.53
2018-10-03T07:07:17.252Z,101828.88
2018-10-03T07:09:45.777Z,101827.59
2018-10-03T07:12:14.417Z,101840.64
2018-10-03T07:14:42.971Z,101848.45
2018-10-03T07:17:11.453Z,101854.41
2018-10-03T07:19:40.012Z,101862.32
2018-10-03T07:22:08.929Z,101866.91
2018-10-03T07:24:37.760Z,101875.56
2018-10-03T07:27:06.399Z,101875.34
2018-10-03T07:29:35.031Z,101882.22
2018-10-03T07:32:05.904Z,101878.89
2018-10-03T07:34:34.444Z,101889.52
2018-10-03T07:37:04.536Z,101880.63
2018-10-03T07:39:33.231Z,101884.41
2018-10-03T07:42:03.826Z,101893.66
2018-10-03T07:44:32.424Z,101900.77
2018-10-03T07:47:03.433Z,101894.58
2018-10-03T07:49:32.187Z,101911.73
2018-10-03T07:52:00.714Z,101918.42
2018-10-03T07:54:29.336Z,101925.52
2018-10-03T07:56:58.264Z,101926.73
2018-10-03T07:59:27.300Z,101924.79
2018-10-03T08:01:56.220Z,101924.68
2018-10-03T08:04:24.749Z,101927.91
2018-10-03T08:06:53.284Z,101931.92
2018-10-03T08:09:24.933Z,101927.55
2018-10-03T08:11:53.445Z,101932.31
2018-10-03T08:14:21.962Z,101941.32
2018-10-03T08:16:50.431Z,101949.03
2018-10-03T08:19:19.079Z,101956.06
2018-10-03T08:21:47.810Z,101940.23
2018-10-03T08:24:16.322Z,101944.41
2018-10-03T08:26:44.858Z,101955.46
2018-10-03T08:29:13.482Z,101958.27
2018-10-03T08:31:42.038Z,101967.03
2018-10-03T08:34:10.858Z,101966.36
2018-10-03T08:36:39.444Z,101965.58
2018-10-03T08:39:10.913Z,101966.94
2018-10-03T08:41:39.433Z,101971.25
2018-10-03T08:44:08.226Z,101976.70
2018-10-03T08:46:36.761Z,101984.08
2018-10-03T08:49:06.065Z,101997.83
2018-10-03T08:51:34.712Z,101999.41
2018-10-03T08:54:04.881Z,101999.28
2018-10-03T08:56:33.401Z,102012.24
2018-10-03T08:59:02.895Z,102006.56
2018-10-03T09:01:31.428Z,102012.24
2018-10-03T09:03:59.930Z,102013.37
2018-10-03T09:06:28.565Z,102015.89
2018-10-03T09:08:57.137Z,102019.38
2018-10-03T09:11:26.936Z,102034.94
2018-10-03T09:13:55.422Z,102039.33
2018-10-03T09:16:23.952Z,102048.72
2018-10-03T09:18:52.461Z,102050.39
2018-10-03T09:21:20.995Z,102057.44
2018-10-03T09:23:49.511Z,102063.64
2018-10-03T09:26:18.107Z,102056.99
2018-10-03T09:28:46.758Z,102045.62
2018-10-03T09:31:16.151Z,102043.56
2018-10-03T09:33:44.800Z,102041.28
2018-10-03T09:36:14.329Z,102045.61
2018-10-03T09:38:42.841Z,102042.98
2018-10-03T09:41:11.364Z,102057.83
2018-10-03T09:43:39.996Z,102063.15
2018-10-03T09:46:08.920Z,102057.12
2018-10-03T09:48:37.472Z,102048.45
2018-10-03T09:51:06.001Z,102058.27
2018-10-03T09:53:34.795Z,102071.52
2018-10-03T09:56:05.108Z,102066.47
2018-10-03T09:58:33.579Z,102073.28
2018-10-03T10:01:09.286Z,102089.41
2018-10-03T10:03:37.783Z,102080.07
2018-10-03T10:06:06.394Z,102096.38
2018-10-03T10:08:35.062Z,102091.55
2018-10-03T10:11:05.225Z,102112.63
2018-10-03T10:13:33.932Z,102104.66
2018-10-03T10:16:03.745Z,102097.02
2018-10-03T10:18:32.261Z,102107.03
2018-10-03T10:21:00.785Z,102107.17
2018-10-03T10:23:29.316Z,102093.45
2018-10-03T10:25:57.816Z,102101.10
2018-10-03T10:28:26.404Z,102111.84
2018-10-03T10:30:54.912Z,102105.48
2018-10-03T10:33:23.427Z,102107.61
2018-10-03T10:35:52.038Z,102110.80
2018-10-03T10:38:20.574Z,102108.73
2018-10-03T10:40:49.146Z,102108.81
2018-10-03T10:43:18.008Z,102117.83
2018-10-03T10:45:46.861Z,102117.30
2018-10-03T10:48:15.496Z,102122.68
2018-10-03T10:50:44.056Z,102133.66
2018-10-03T10:53:12.624Z,102134.72
2018-10-03T10:55:41.194Z,102140.09
2018-10-03T10:58:09.728Z,102137.62
2018-10-03T11:00:38.691Z,102137.43
2018-10-03T11:03:07.273Z,102156.99
2018-10-03T11:05:35.857Z,102143.20
2018-10-03T11:08:05.665Z,102148.87
2018-10-03T11:10:34.144Z,102150.49
2018-10-03T11:13:04.157Z,102146.09
2018-10-03T11:15:32.785Z,102134.16
2018-10-03T11:18:03.165Z,102152.31
2018-10-03T11:20:31.729Z,102139.70
2018-10-03T11:23:00.217Z,102143.78
2018-10-03T11:25:28.793Z,102145.16
2018-10-03T11:27:57.308Z,102149.39
2018-10-03T11:30:25.915Z,102162.13
2018-10-03T11:32:56.326Z,102161.67
2018-10-03T11:35:25.560Z,102156.77
2018-10-03T11:37:54.135Z,102150.42
2018-10-03T11:40:22.865Z,102145.77
2018-10-03T11:42:51.465Z,102148.31
2018-10-03T11:45:20.031Z,102146.77
2018-10-03T11:47:48.671Z,102141.67
2018-10-03T11:50:17.265Z,102141.67
2018-10-03T11:52:47.105Z,102144.94
2018-10-03T11:55:15.625Z,102142.04
2018-10-03T11:57:44.154Z,102144.29
2018-10-03T12:00:12.697Z,102148.22
2018-10-03T12:02:41.496Z,102141.65
2018-10-03T12:05:10.037Z,102140.44
2018-10-03T12:07:38.706Z,102152.51
2018-10-03T12:10:07.925Z,102157.52
2018-10-03T12:12:36.470Z,102155.30
2018-10-03T12:15:06.926Z,102168.23
2018-10-03T12:17:35.440Z,102150.78
2018-10-03T12:20:05.303Z,102162.34
2018-10-03T12:22:34.203Z,102169.59
2018-10-03T12:25:03.774Z,102158.22
2018-10-03T12:27:32.424Z,102166.70
2018-10-03T12:30:02.697Z,102164.58
2018-10-03T12:32:31.246Z,102157.28
2018-10-03T12:34:59.753Z,102165.46
2018-10-03T12:37:28.307Z,102160.45
2018-10-03T12:39:57.167Z,102172.69
2018-10-03T12:42:26.230Z,102153.80
2018-10-03T12:44:54.814Z,102159.02
2018-10-03T12:47:23.333Z,102170.81
2018-10-03T12:49:51.852Z,102162.28
2018-10-03T12:52:20.423Z,102152.91
2018-10-03T12:54:48.967Z,102158.91
2018-10-03T12:57:17.863Z,102163.45
2018-10-03T12:59:46.459Z,102153.17
2018-10-03T13:02:15.024Z,102161.89
2018-10-03T13:04:43.920Z,102162.75
2018-10-03T13:07:12.426Z,102161.19
2018-10-03T13:09:42.720Z,102158.73
2018-10-03T13:12:11.807Z,102140.95
2018-10-03T13:14:40.288Z,102161.08
2018-10-03T13:17:08.789Z,102158.02
2018-10-03T13:19:37.636Z,102163.07
2018-10-03T13:22:06.190Z,102167.27
2018-10-03T13:24:34.782Z,102167.22
2018-10-03T13:27:04.842Z,102167.69
2018-10-03T13:29:33.474Z,102170.58
2018-10-03T13:32:02.728Z,102166.61
2018-10-03T13:34:31.341Z,102169.52
2018-10-03T13:36:59.856Z,102170.52
2018-10-03T13:39:28.344Z,102173.01
2018-10-03T13:41:57.100Z,102176.22
2018-10-03T13:44:25.625Z,102175.77
2018-10-03T13:46:54.142Z,102179.44
2018-10-03T13:49:22.701Z,102176.74
2018-10-03T13:51:51.215Z,102180.95
2018-10-03T13:54:19.733Z,102174.16
2018-10-03T13:56:48.257Z,102171.27
2018-10-03T13:59:16.823Z,102172.74
2018-10-03T14:01:45.614Z,102181.54
2018-10-03T14:04:14.150Z,102179.05
2018-10-03T14:06:42.690Z,102182.02
2018-10-03T14:09:11.929Z,102175.08
2018-10-03T14:11:40.890Z,102170.36
2018-10-03T14:14:09.709Z,102165.05
2018-10-03T14:16:38.204Z,102165.04
2018-10-03T14:19:06.726Z,102178.72
2018-10-03T14:21:35.438Z,102182.91
2018-10-03T14:24:05.427Z,102182.09
2018-10-03T14:26:33.920Z,102188.06
2018-10-03T14:29:03.763Z,102180.38
2018-10-03T14:31:32.283Z,102181.86
2018-10-03T14:34:00.753Z,102183.95
2018-10-03T14:36:29.310Z,102177.05
2018-10-03T14:38:57.872Z,102177.97
2018-10-03T14:41:28.246Z,102179.74
2018-10-03T14:43:56.770Z,102185.16
2018-10-03T14:46:25.711Z,102176.37
2018-10-03T14:48:54.273Z,102183.63
2018-10-03T14:51:22.781Z,102180.91
2018-10-03T14:53:51.360Z,102166.82
2018-10-03T14:56:19.872Z,102186.00
2018-10-03T14:58:48.457Z,102185.36
2018-10-03T15:01:17.353Z,102173.47
2018-10-03T15:03:45.824Z,102169.92
2018-10-03T15:06:14.469Z,102169.75
2018-10-03T15:08:43.387Z,102187.58
2018-10-03T15:11:11.881Z,102176.67
2018-10-03T15:13:40.409Z,102173.48
2018-10-03T15:16:09.216Z,102170.16
2018-10-03T15:18:37.999Z,102173.36
2018-10-03T15:21:06.534Z,102167.20
2018-10-03T15:23:35.016Z,102176.87
2018-10-03T15:26:05.260Z,102171.09
2018-10-03T15:28:33.821Z,102175.95
2018-10-03T15:31:04.429Z,102186.86
2018-10-03T15:33:33.014Z,102173.97
2018-10-03T15:36:03.176Z,102183.22
2018-10-03T15:38:31.721Z,102182.09
2018-10-03T15:41:07.619Z,102178.03
2018-10-03T15:43:36.390Z,102182.70
2018-10-03T15:46:06.623Z,102188.70
2018-10-03T15:48:36.006Z,102184.83
2018-10-03T15:51:05.105Z,102183.57
2018-10-03T15:53:33.667Z,102184.73
2018-10-03T15:56:04.713Z,102187.50
2018-10-03T15:58:33.357Z,102187.84
2018-10-03T16:01:03.177Z,102184.67
2018-10-03T16:03:31.681Z,102191.94
2018-10-03T16:06:00.264Z,102188.69
2018-10-03T16:08:28.940Z,102188.47
2018-10-03T16:10:57.602Z,102194.55
2018-10-03T16:13:26.168Z,102191.34
2018-10-03T16:15:55.146Z,102197.91
2018-10-03T16:18:23.828Z,102188.82
2018-10-03T16:20:52.376Z,102198.53
2018-10-03T16:23:20.874Z,102199.45
2018-10-03T16:25:49.449Z,102208.65
2018-10-03T16:28:18.042Z,102214.38
2018-10-03T16:30:46.633Z,102210.25
2018-10-03T16:33:15.147Z,102212.31
2018-10-03T16:35:43.749Z,102214.80
2018-10-03T16:38:12.348Z,102221.08
2018-10-03T16:40:40.872Z,102224.77
2018-10-03T16:43:09.443Z,102230.47
2018-10-03T16:45:39.791Z,102229.89
2018-10-03T16:48:08.311Z,102232.98
2018-10-03T16:50:36.860Z,102230.63
2018-10-03T16:53:06.119Z,102243.63
2018-10-03T16:55:34.687Z,102247.13
2018-10-03T16:58:05.591Z,102249.86
2018-10-03T17:00:36.461Z,102250.20
2018-10-03T17:03:06.353Z,102254.09
2018-10-03T17:05:36.198Z,102259.53
2018-10-03T17:08:05.372Z,102261.32
2018-10-03T17:10:34.344Z,102262.69
2018-10-03T17:13:04.512Z,102264.99
2018-10-03T17:15:33.007Z,102266.35
2018-10-03T17:18:03.090Z,102268.95
2018-10-03T17:20:31.686Z,102276.20
2018-10-03T17:23:00.177Z,102271.89
2018-10-03T17:25:28.744Z,102266.25
2018-10-03T17:27:57.903Z,102274.31
2018-10-03T17:30:26.449Z,102267.50
2018-10-03T17:32:55.245Z,102265.02
2018-10-03T17:35:24.015Z,102266.67
2018-10-03T17:37:52.590Z,102267.09
2018-10-03T17:40:21.230Z,102263.97
2018-10-03T17:42:49.842Z,102268.45
2018-10-03T17:45:18.537Z,102272.11
2018-10-03T17:47:47.135Z,102273.58
2018-10-03T17:50:15.808Z,102272.30
2018-10-03T17:52:44.457Z,102280.06
2018-10-03T17:55:13.002Z,102275.78
2018-10-03T17:57:41.555Z,102280.80
2018-10-03T18:00:10.520Z,102287.89
2018-10-03T18:02:39.419Z,102288.50
2018-10-03T18:05:08.088Z,102295.48
2018-10-03T18:07:37.808Z,102297.49
2018-10-03T18:10:07.100Z,102289.34
2018-10-03T18:12:37.144Z,102289.45
2018-10-03T18:15:06.616Z,102285.50
2018-10-03T18:17:35.184Z,102291.56
2018-10-03T18:20:06.471Z,102290.39
2018-10-03T18:22:35.114Z,102283.05
2018-10-03T18:25:07.912Z,102277.17
2018-10-03T18:27:36.619Z,102270.98
2018-10-03T18:30:07.599Z,102278.20
2018-10-03T18:32:36.265Z,102277.87
2018-10-03T18:35:07.943Z,102281.96
2018-10-03T18:37:36.595Z,102277.41
2018-10-03T18:40:05.342Z,102282.31
2018-10-03T18:42:34.920Z,102276.38
2018-10-03T18:45:06.779Z,102270.58
2018-10-03T18:47:35.325Z,102274.57
2018-10-03T18:50:07.140Z,102277.19
2018-10-03T18:52:35.758Z,102271.91
2018-10-03T18:55:06.318Z,102277.73
2018-10-03T18:57:34.992Z,102276.23
2018-10-03T19:00:07.356Z,102270.56
2018-10-03T19:02:36.002Z,102273.09
2018-10-03T19:05:05.858Z,102277.23
2018-10-03T19:07:34.575Z,102276.63
2018-10-03T19:10:05.357Z,102271.72
2018-10-03T19:12:34.474Z,102278.28
2018-10-03T19:15:07.236Z,102287.61
2018-10-03T19:17:35.897Z,102285.45
2018-10-03T19:20:08.093Z,102287.39
2018-10-03T19:22:36.683Z,102292.69
2018-10-03T19:25:06.807Z,102284.85
2018-10-03T19:27:35.451Z,102288.06
2018-10-03T19:30:05.458Z,102295.30
2018-10-03T19:32:34.098Z,102289.26
2018-10-03T19:35:06.147Z,102295.14
2018-10-03T19:37:35.591Z,102299.56
2018-10-03T19:40:06.511Z,102301.83
2018-10-03T19:42:35.424Z,102301.75
2018-10-03T19:45:05.960Z,102304.36
2018-10-03T19:47:34.674Z,102304.36
2018-10-03T19:50:05.496Z,102297.98
2018-10-03T19:52:34.380Z,102298.84
2018-10-03T19:55:05.104Z,102297.77
2018-10-03T19:57:34.355Z,102297.90
2018-10-03T20:00:05.509Z,102296.22
2018-10-03T20:02:34.131Z,102302.59
2018-10-03T20:05:05.510Z,102304.84
2018-10-03T20:07:34.800Z,102300.14
2018-10-03T20:10:05.523Z,102301.63
2018-10-03T20:12:34.533Z,102306.99
2018-10-03T20:15:05.217Z,102309.10
2018-10-03T20:17:33.796Z,102311.94
2018-10-03T20:20:04.816Z,102309.45
2018-10-03T20:22:33.416Z,102310.16
2018-10-03T20:25:03.651Z,102312.19
2018-10-03T20:27:32.324Z,102313.37
2018-10-03T20:30:03.010Z,102316.71
2018-10-03T20:32:32.050Z,102323.64
2018-10-03T20:35:00.678Z,102321.55
2018-10-03T20:37:29.224Z,102322.61
2018-10-03T20:39:57.855Z,102321.74
2018-10-03T20:42:26.547Z,102320.21
2018-10-03T20:44:55.090Z,102320.28
2018-10-03T20:47:23.682Z,102319.37
2018-10-03T20:49:52.516Z,102323.30
2018-10-03T20:52:21.114Z,102322.13
2018-10-03T20:54:50.038Z,102320.83
2018-10-03T20:57:18.588Z,102318.20
2018-10-03T20:59:47.153Z,102320.69
2018-10-03T21:02:15.813Z,102324.45
2018-10-03T21:04:44.522Z,102322.45
2018-10-03T21:07:13.071Z,102326.89
2018-10-03T21:09:41.957Z,102328.24
2018-10-03T21:12:17.369Z,102332.89
2018-10-03T21:14:45.879Z,102325.32
2018-10-03T21:17:14.373Z,102326.91
2018-10-03T21:19:42.900Z,102328.47
2018-10-03T21:22:11.422Z,102324.78
2018-10-03T21:24:40.006Z,102322.82
2018-10-03T21:27:09.398Z,102330.55
2018-10-03T21:29:37.925Z,102324.77
2018-10-03T21:32:06.613Z,102329.42
2018-10-03T21:34:35.122Z,102329.78
2018-10-03T21:37:06.369Z,102332.95
2018-10-03T21:39:38.800Z,102327.45
2018-10-03T21:42:07.377Z,102320.69
2018-10-03T21:44:35.904Z,102321.36
2018-10-03T21:47:07.295Z,102321.03
2018-10-03T21:49:35.896Z,102319.67
2018-10-03T21:52:05.671Z,102315.17
2018-10-03T21:54:34.372Z,102320.40
2018-10-03T21:57:04.461Z,102317.30
2018-10-03T21:59:32.986Z,102315.81
2018-10-03T22:02:03.278Z,102310.67
2018-10-03T22:04:31.781Z,102305.49
2018-10-03T22:07:00.329Z,102314.25
2018-10-03T22:09:28.879Z,102311.84
2018-10-03T22:11:57.697Z,102312.42
2018-10-03T22:14:26.319Z,102305.24
2018-10-03T22:16:54.925Z,102311.06
2018-10-03T22:19:23.928Z,102303.95
2018-10-03T22:21:52.450Z,102303.28
2018-10-03T22:24:20.993Z,102306.39
2018-10-03T22:26:49.613Z,102305.03
2018-10-03T22:29:18.293Z,102304.91
2018-10-03T22:31:46.793Z,102303.05
2018-10-03T22:34:15.498Z,102302.88
2018-10-03T22:36:44.051Z,102299.20
2018-10-03T22:39:12.523Z,102303.95
2018-10-03T22:41:41.305Z,102305.08
2018-10-03T22:44:09.850Z,102297.11
2018-10-03T22:46:38.728Z,102294.84
2018-10-03T22:49:07.681Z,102296.71
2018-10-03T22:51:36.309Z,102295.80
2018-10-03T22:54:06.182Z,102299.27
2018-10-03T22:56:35.060Z,102296.09
2018-10-03T22:59:05.678Z,102294.99
2018-10-03T23:01:34.178Z,102291.33
2018-10-03T23:04:03.711Z,102290.56
2018-10-03T23:06:32.257Z,102292.69
2018-10-03T23:09:00.774Z,102296.64
2018-10-03T23:11:29.399Z,102298.95
2018-10-03T23:13:57.933Z,102297.72
2018-10-03T23:16:26.478Z,102300.98
2018-10-03T23:18:55.035Z,102296.06
2018-10-03T23:21:23.547Z,102303.17
2018-10-03T23:23:52.052Z,102294.37
2018-10-03T23:26:21.026Z,102298.81
2018-10-03T23:28:49.527Z,102295.33
2018-10-03T23:31:18.139Z,102296.28
2018-10-03T23:33:46.658Z,102291.62
2018-10-03T23:36:15.168Z,102290.16
2018-10-03T23:38:43.698Z,102295.17
2018-10-03T23:41:12.232Z,102290.67
2018-10-03T23:43:40.759Z,102298.95
2018-10-03T23:46:09.661Z,102294.95
2018-10-03T23:48:38.143Z,102289.23
2018-10-03T23:51:06.874Z,102300.16
2018-10-03T23:53:35.388Z,102296.42
2018-10-03T23:56:05.317Z,102298.73
2018-10-03T23:58:34.149Z,102297.38
